sensor_id;sensor_type;location;lat;lon;timestamp;temperature;humidity
77829;DHT22;67019;51.034;3.728;2024-03-29T00:00:41;9.70;99.90
77829;DHT22;67019;51.034;3.728;2024-03-29T00:03:10;9.70;99.90
77829;DHT22;67019;51.034;3.728;2024-03-29T00:05:37;9.80;99.90
77829;DHT22;67019;51.034;3.728;2024-03-29T00:08:04;9.80;99.90
77829;DHT22;67019;51.034;3.728;2024-03-29T00:10:31;9.80;99.90
77829;DHT22;67019;51.034;3.728;2024-03-29T00:12:58;9.80;99.90
77829;DHT22;67019;51.034;3.728;2024-03-29T00:15:25;9.90;99.90
77829;DHT22;67019;51.034;3.728;2024-03-29T00:17:52;9.90;99.90
77829;DHT22;67019;51.034;3.728;2024-03-29T00:20:20;9.90;99.90
77829;DHT22;67019;51.034;3.728;2024-03-29T00:22:47;9.90;99.90
77829;DHT22;67019;51.034;3.728;2024-03-29T00:25:14;9.90;99.90
77829;DHT22;67019;51.034;3.728;2024-03-29T00:27:41;10.00;99.90
77829;DHT22;67019;51.034;3.728;2024-03-29T00:30:09;9.90;99.90
77829;DHT22;67019;51.034;3.728;2024-03-29T00:32:36;9.90;99.90
77829;DHT22;67019;51.034;3.728;2024-03-29T00:35:03;9.90;99.90
77829;DHT22;67019;51.034;3.728;2024-03-29T00:37:30;10.00;99.90
77829;DHT22;67019;51.034;3.728;2024-03-29T00:39:58;9.90;99.90
77829;DHT22;67019;51.034;3.728;2024-03-29T00:42:27;10.00;99.90
77829;DHT22;67019;51.034;3.728;2024-03-29T00:44:55;9.90;99.90
77829;DHT22;67019;51.034;3.728;2024-03-29T00:47:21;9.90;99.90
77829;DHT22;67019;51.034;3.728;2024-03-29T00:49:48;10.00;99.90
77829;DHT22;67019;51.034;3.728;2024-03-29T00:52:15;10.10;99.90
77829;DHT22;67019;51.034;3.728;2024-03-29T00:54:42;10.10;99.90
77829;DHT22;67019;51.034;3.728;2024-03-29T00:57:09;10.00;99.90
77829;DHT22;67019;51.034;3.728;2024-03-29T00:59:37;10.10;99.90
77829;DHT22;67019;51.034;3.728;2024-03-29T01:02:04;10.00;99.90
77829;DHT22;67019;51.034;3.728;2024-03-29T01:04:31;10.10;99.90
77829;DHT22;67019;51.034;3.728;2024-03-29T01:06:58;10.10;99.90
77829;DHT22;67019;51.034;3.728;2024-03-29T01:09:24;10.10;99.90
77829;DHT22;67019;51.034;3.728;2024-03-29T01:11:51;10.20;99.90
77829;DHT22;67019;51.034;3.728;2024-03-29T01:14:19;10.00;99.90
77829;DHT22;67019;51.034;3.728;2024-03-29T01:16:49;10.10;99.90
77829;DHT22;67019;51.034;3.728;2024-03-29T01:19:16;10.00;99.90
77829;DHT22;67019;51.034;3.728;2024-03-29T01:21:42;10.10;99.90
77829;DHT22;67019;51.034;3.728;2024-03-29T01:24:10;10.20;99.90
77829;DHT22;67019;51.034;3.728;2024-03-29T01:26:37;10.10;99.90
77829;DHT22;67019;51.034;3.728;2024-03-29T01:29:04;10.10;99.90
77829;DHT22;67019;51.034;3.728;2024-03-29T01:31:32;10.00;99.90
77829;DHT22;67019;51.034;3.728;2024-03-29T01:33:59;10.20;99.90
77829;DHT22;67019;51.034;3.728;2024-03-29T01:36:27;10.20;99.90
77829;DHT22;67019;51.034;3.728;2024-03-29T01:38:54;10.10;99.90
77829;DHT22;67019;51.034;3.728;2024-03-29T01:41:23;10.10;99.90
77829;DHT22;67019;51.034;3.728;2024-03-29T01:43:51;10.10;99.90
77829;DHT22;67019;51.034;3.728;2024-03-29T01:46:18;10.00;99.90
77829;DHT22;67019;51.034;3.728;2024-03-29T01:48:45;9.90;99.90
77829;DHT22;67019;51.034;3.728;2024-03-29T01:51:13;10.00;99.90
77829;DHT22;67019;51.034;3.728;2024-03-29T01:53:40;10.00;99.90
77829;DHT22;67019;51.034;3.728;2024-03-29T01:56:07;10.00;99.90
77829;DHT22;67019;51.034;3.728;2024-03-29T01:58:35;10.00;99.90
77829;DHT22;67019;51.034;3.728;2024-03-29T02:01:02;10.00;99.90
77829;DHT22;67019;51.034;3.728;2024-03-29T02:03:30;10.00;99.90
77829;DHT22;67019;51.034;3.728;2024-03-29T02:05:58;10.00;99.90
77829;DHT22;67019;51.034;3.728;2024-03-29T02:08:27;10.00;99.90
77829;DHT22;67019;51.034;3.728;2024-03-29T02:10:55;10.10;99.90
77829;DHT22;67019;51.034;3.728;2024-03-29T02:13:24;10.00;99.90
77829;DHT22;67019;51.034;3.728;2024-03-29T02:15:51;9.90;99.90
77829;DHT22;67019;51.034;3.728;2024-03-29T02:18:20;9.90;99.90
77829;DHT22;67019;51.034;3.728;2024-03-29T02:20:46;9.80;99.90
77829;DHT22;67019;51.034;3.728;2024-03-29T02:23:14;9.80;99.90
77829;DHT22;67019;51.034;3.728;2024-03-29T02:25:43;9.80;99.90
77829;DHT22;67019;51.034;3.728;2024-03-29T02:28:11;9.70;99.90
77829;DHT22;67019;51.034;3.728;2024-03-29T02:30:38;9.80;99.90
77829;DHT22;67019;51.034;3.728;2024-03-29T02:33:04;9.70;99.90
77829;DHT22;67019;51.034;3.728;2024-03-29T02:35:31;9.80;99.90
77829;DHT22;67019;51.034;3.728;2024-03-29T02:37:58;9.80;99.90
77829;DHT22;67019;51.034;3.728;2024-03-29T02:40:25;9.70;99.90
77829;DHT22;67019;51.034;3.728;2024-03-29T02:42:52;9.70;99.90
77829;DHT22;67019;51.034;3.728;2024-03-29T02:45:19;9.70;99.90
77829;DHT22;67019;51.034;3.728;2024-03-29T02:47:46;9.70;99.90
77829;DHT22;67019;51.034;3.728;2024-03-29T02:50:13;9.70;99.90
77829;DHT22;67019;51.034;3.728;2024-03-29T02:52:40;9.40;99.90
77829;DHT22;67019;51.034;3.728;2024-03-29T02:55:08;9.50;99.90
77829;DHT22;67019;51.034;3.728;2024-03-29T02:57:37;9.50;99.90
77829;DHT22;67019;51.034;3.728;2024-03-29T03:00:04;9.30;99.90
77829;DHT22;67019;51.034;3.728;2024-03-29T03:02:31;9.20;99.90
77829;DHT22;67019;51.034;3.728;2024-03-29T03:04:58;9.00;99.90
77829;DHT22;67019;51.034;3.728;2024-03-29T03:07:28;9.10;99.90
77829;DHT22;67019;51.034;3.728;2024-03-29T03:10:12;9.00;99.90
77829;DHT22;67019;51.034;3.728;2024-03-29T03:12:57;8.90;99.90
77829;DHT22;67019;51.034;3.728;2024-03-29T03:15:24;8.90;99.90
77829;DHT22;67019;51.034;3.728;2024-03-29T03:17:51;9.00;99.90
77829;DHT22;67019;51.034;3.728;2024-03-29T03:20:18;8.80;99.90
77829;DHT22;67019;51.034;3.728;2024-03-29T03:22:45;8.70;99.90
77829;DHT22;67019;51.034;3.728;2024-03-29T03:25:12;9.00;99.90
77829;DHT22;67019;51.034;3.728;2024-03-29T03:27:39;9.00;99.90
77829;DHT22;67019;51.034;3.728;2024-03-29T03:30:06;8.90;99.90
77829;DHT22;67019;51.034;3.728;2024-03-29T03:32:33;8.60;99.90
77829;DHT22;67019;51.034;3.728;2024-03-29T03:34:59;8.60;99.90
77829;DHT22;67019;51.034;3.728;2024-03-29T03:37:26;8.60;99.90
77829;DHT22;67019;51.034;3.728;2024-03-29T03:39:53;8.70;99.90
77829;DHT22;67019;51.034;3.728;2024-03-29T03:42:20;8.70;99.90
77829;DHT22;67019;51.034;3.728;2024-03-29T03:44:48;8.70;99.90
77829;DHT22;67019;51.034;3.728;2024-03-29T03:47:15;8.90;99.90
77829;DHT22;67019;51.034;3.728;2024-03-29T03:49:42;8.70;99.90
77829;DHT22;67019;51.034;3.728;2024-03-29T03:52:09;8.70;99.90
77829;DHT22;67019;51.034;3.728;2024-03-29T03:54:36;8.60;99.90
77829;DHT22;67019;51.034;3.728;2024-03-29T03:57:03;8.60;99.90
77829;DHT22;67019;51.034;3.728;2024-03-29T03:59:31;8.60;99.90
77829;DHT22;67019;51.034;3.728;2024-03-29T04:01:58;8.70;99.90
77829;DHT22;67019;51.034;3.728;2024-03-29T04:04:25;8.70;99.90
77829;DHT22;67019;51.034;3.728;2024-03-29T04:06:51;8.80;99.90
77829;DHT22;67019;51.034;3.728;2024-03-29T04:09:18;8.80;99.90
77829;DHT22;67019;51.034;3.728;2024-03-29T04:11:45;8.80;99.90
77829;DHT22;67019;51.034;3.728;2024-03-29T04:14:12;8.70;99.90
77829;DHT22;67019;51.034;3.728;2024-03-29T04:16:39;8.70;99.90
77829;DHT22;67019;51.034;3.728;2024-03-29T04:19:06;8.70;99.90
77829;DHT22;67019;51.034;3.728;2024-03-29T04:21:33;8.40;99.90
77829;DHT22;67019;51.034;3.728;2024-03-29T04:23:59;8.40;99.90
77829;DHT22;67019;51.034;3.728;2024-03-29T04:26:26;8.40;99.90
77829;DHT22;67019;51.034;3.728;2024-03-29T04:28:53;8.40;99.90
77829;DHT22;67019;51.034;3.728;2024-03-29T04:31:20;8.30;99.90
77829;DHT22;67019;51.034;3.728;2024-03-29T04:33:47;8.30;99.90
77829;DHT22;67019;51.034;3.728;2024-03-29T04:36:14;8.30;99.90
77829;DHT22;67019;51.034;3.728;2024-03-29T04:38:41;8.20;99.90
77829;DHT22;67019;51.034;3.728;2024-03-29T04:41:07;8.10;99.90
77829;DHT22;67019;51.034;3.728;2024-03-29T04:43:34;8.20;99.90
77829;DHT22;67019;51.034;3.728;2024-03-29T04:46:04;8.20;99.90
77829;DHT22;67019;51.034;3.728;2024-03-29T04:48:35;8.20;99.90
77829;DHT22;67019;51.034;3.728;2024-03-29T04:51:01;8.10;99.90
77829;DHT22;67019;51.034;3.728;2024-03-29T04:53:27;8.10;99.90
77829;DHT22;67019;51.034;3.728;2024-03-29T04:55:55;8.20;99.90
77829;DHT22;67019;51.034;3.728;2024-03-29T04:58:22;8.10;99.90
77829;DHT22;67019;51.034;3.728;2024-03-29T05:00:49;8.10;99.90
77829;DHT22;67019;51.034;3.728;2024-03-29T05:03:19;8.20;99.90
77829;DHT22;67019;51.034;3.728;2024-03-29T05:05:46;8.20;99.90
77829;DHT22;67019;51.034;3.728;2024-03-29T05:08:13;8.10;99.90
77829;DHT22;67019;51.034;3.728;2024-03-29T05:10:40;8.10;99.90
77829;DHT22;67019;51.034;3.728;2024-03-29T05:13:06;8.10;99.90
77829;DHT22;67019;51.034;3.728;2024-03-29T05:15:33;8.10;99.90
77829;DHT22;67019;51.034;3.728;2024-03-29T05:18:00;8.20;99.90
77829;DHT22;67019;51.034;3.728;2024-03-29T05:20:27;8.30;99.90
77829;DHT22;67019;51.034;3.728;2024-03-29T05:22:54;8.40;99.90
77829;DHT22;67019;51.034;3.728;2024-03-29T05:25:21;8.20;99.90
77829;DHT22;67019;51.034;3.728;2024-03-29T05:27:49;8.20;99.90
77829;DHT22;67019;51.034;3.728;2024-03-29T05:30:16;8.20;99.90
77829;DHT22;67019;51.034;3.728;2024-03-29T05:32:43;8.40;99.90
77829;DHT22;67019;51.034;3.728;2024-03-29T05:35:10;8.20;99.90
77829;DHT22;67019;51.034;3.728;2024-03-29T05:37:37;8.40;99.90
77829;DHT22;67019;51.034;3.728;2024-03-29T05:40:04;8.30;99.90
77829;DHT22;67019;51.034;3.728;2024-03-29T05:42:32;8.30;99.90
77829;DHT22;67019;51.034;3.728;2024-03-29T05:45:00;8.40;99.90
77829;DHT22;67019;51.034;3.728;2024-03-29T05:47:27;8.50;99.90
77829;DHT22;67019;51.034;3.728;2024-03-29T05:49:54;8.40;99.90
77829;DHT22;67019;51.034;3.728;2024-03-29T05:52:21;8.20;99.90
77829;DHT22;67019;51.034;3.728;2024-03-29T05:54:49;8.30;99.90
77829;DHT22;67019;51.034;3.728;2024-03-29T05:57:16;8.20;99.90
77829;DHT22;67019;51.034;3.728;2024-03-29T05:59:43;8.30;99.90
77829;DHT22;67019;51.034;3.728;2024-03-29T06:02:09;8.10;99.90
77829;DHT22;67019;51.034;3.728;2024-03-29T06:04:36;8.00;99.90
77829;DHT22;67019;51.034;3.728;2024-03-29T06:07:04;8.00;99.90
77829;DHT22;67019;51.034;3.728;2024-03-29T06:09:31;8.10;99.90
77829;DHT22;67019;51.034;3.728;2024-03-29T06:12:13;8.00;99.90
77829;DHT22;67019;51.034;3.728;2024-03-29T06:14:29;8.10;99.90
77829;DHT22;67019;51.034;3.728;2024-03-29T06:17:14;8.30;99.90
77829;DHT22;67019;51.034;3.728;2024-03-29T06:19:50;8.40;99.90
77829;DHT22;67019;51.034;3.728;2024-03-29T06:22:18;8.30;99.90
77829;DHT22;67019;51.034;3.728;2024-03-29T06:24:45;8.30;99.90
77829;DHT22;67019;51.034;3.728;2024-03-29T06:27:14;8.40;99.90
77829;DHT22;67019;51.034;3.728;2024-03-29T06:29:44;8.40;99.90
77829;DHT22;67019;51.034;3.728;2024-03-29T06:32:11;8.40;99.90
77829;DHT22;67019;51.034;3.728;2024-03-29T06:34:39;8.50;99.90
77829;DHT22;67019;51.034;3.728;2024-03-29T06:37:06;8.50;99.90
77829;DHT22;67019;51.034;3.728;2024-03-29T06:39:33;8.50;99.90
77829;DHT22;67019;51.034;3.728;2024-03-29T06:42:00;8.80;99.90
77829;DHT22;67019;51.034;3.728;2024-03-29T06:44:28;9.00;99.90
77829;DHT22;67019;51.034;3.728;2024-03-29T06:46:54;9.10;99.90
77829;DHT22;67019;51.034;3.728;2024-03-29T06:49:21;9.10;99.90
77829;DHT22;67019;51.034;3.728;2024-03-29T06:51:48;8.90;99.90
77829;DHT22;67019;51.034;3.728;2024-03-29T06:54:15;8.80;99.90
77829;DHT22;67019;51.034;3.728;2024-03-29T06:56:42;8.90;99.90
77829;DHT22;67019;51.034;3.728;2024-03-29T06:59:09;8.70;99.90
77829;DHT22;67019;51.034;3.728;2024-03-29T07:01:36;8.90;99.90
77829;DHT22;67019;51.034;3.728;2024-03-29T07:04:03;9.00;99.90
77829;DHT22;67019;51.034;3.728;2024-03-29T07:06:30;8.70;99.90
77829;DHT22;67019;51.034;3.728;2024-03-29T07:08:56;8.70;99.90
77829;DHT22;67019;51.034;3.728;2024-03-29T07:11:23;8.80;99.90
77829;DHT22;67019;51.034;3.728;2024-03-29T07:13:50;9.00;99.90
77829;DHT22;67019;51.034;3.728;2024-03-29T07:16:17;9.10;99.90
77829;DHT22;67019;51.034;3.728;2024-03-29T07:18:44;9.20;99.90
77829;DHT22;67019;51.034;3.728;2024-03-29T07:21:11;9.40;99.90
77829;DHT22;67019;51.034;3.728;2024-03-29T07:23:38;9.50;99.90
77829;DHT22;67019;51.034;3.728;2024-03-29T07:26:05;9.60;99.90
77829;DHT22;67019;51.034;3.728;2024-03-29T07:28:32;9.70;99.90
77829;DHT22;67019;51.034;3.728;2024-03-29T07:31:04;9.70;99.90
77829;DHT22;67019;51.034;3.728;2024-03-29T07:33:27;9.60;99.90
77829;DHT22;67019;51.034;3.728;2024-03-29T07:35:54;9.60;99.90
77829;DHT22;67019;51.034;3.728;2024-03-29T07:38:23;9.60;99.90
77829;DHT22;67019;51.034;3.728;2024-03-29T07:40:50;9.40;99.90
77829;DHT22;67019;51.034;3.728;2024-03-29T07:43:22;9.50;99.90
77829;DHT22;67019;51.034;3.728;2024-03-29T07:45:45;9.60;99.90
77829;DHT22;67019;51.034;3.728;2024-03-29T07:48:13;9.80;99.90
77829;DHT22;67019;51.034;3.728;2024-03-29T07:50:45;10.20;99.90
77829;DHT22;67019;51.034;3.728;2024-03-29T07:53:08;10.20;99.90
77829;DHT22;67019;51.034;3.728;2024-03-29T07:55:36;9.90;99.90
77829;DHT22;67019;51.034;3.728;2024-03-29T07:58:03;10.00;99.90
77829;DHT22;67019;51.034;3.728;2024-03-29T08:00:31;10.00;99.90
77829;DHT22;67019;51.034;3.728;2024-03-29T08:02:58;10.00;99.90
77829;DHT22;67019;51.034;3.728;2024-03-29T08:05:26;9.80;99.90
77829;DHT22;67019;51.034;3.728;2024-03-29T08:07:53;9.90;99.90
77829;DHT22;67019;51.034;3.728;2024-03-29T08:10:21;9.90;99.90
77829;DHT22;67019;51.034;3.728;2024-03-29T08:12:47;10.10;99.90
77829;DHT22;67019;51.034;3.728;2024-03-29T08:15:14;10.20;99.90
77829;DHT22;67019;51.034;3.728;2024-03-29T08:17:43;10.30;99.90
77829;DHT22;67019;51.034;3.728;2024-03-29T08:20:10;10.30;99.90
77829;DHT22;67019;51.034;3.728;2024-03-29T08:22:37;10.40;99.90
77829;DHT22;67019;51.034;3.728;2024-03-29T08:25:05;10.50;99.90
77829;DHT22;67019;51.034;3.728;2024-03-29T08:27:32;10.60;99.90
77829;DHT22;67019;51.034;3.728;2024-03-29T08:30:00;10.10;99.90
77829;DHT22;67019;51.034;3.728;2024-03-29T08:32:26;9.90;99.90
77829;DHT22;67019;51.034;3.728;2024-03-29T08:34:53;10.30;99.90
77829;DHT22;67019;51.034;3.728;2024-03-29T08:37:20;10.20;99.90
77829;DHT22;67019;51.034;3.728;2024-03-29T08:39:47;10.40;99.90
77829;DHT22;67019;51.034;3.728;2024-03-29T08:42:14;10.40;99.90
77829;DHT22;67019;51.034;3.728;2024-03-29T08:44:42;10.70;99.90
77829;DHT22;67019;51.034;3.728;2024-03-29T08:47:09;10.80;99.90
77829;DHT22;67019;51.034;3.728;2024-03-29T08:49:37;10.70;99.90
77829;DHT22;67019;51.034;3.728;2024-03-29T08:52:04;10.60;99.90
77829;DHT22;67019;51.034;3.728;2024-03-29T08:54:31;10.30;99.90
77829;DHT22;67019;51.034;3.728;2024-03-29T08:56:58;10.30;99.90
77829;DHT22;67019;51.034;3.728;2024-03-29T08:59:27;10.40;99.90
77829;DHT22;67019;51.034;3.728;2024-03-29T09:01:54;10.40;99.90
77829;DHT22;67019;51.034;3.728;2024-03-29T09:04:21;10.30;99.90
77829;DHT22;67019;51.034;3.728;2024-03-29T09:06:49;10.40;99.90
77829;DHT22;67019;51.034;3.728;2024-03-29T09:09:16;10.30;99.90
77829;DHT22;67019;51.034;3.728;2024-03-29T09:11:43;10.00;99.90
77829;DHT22;67019;51.034;3.728;2024-03-29T09:14:10;10.00;99.90
77829;DHT22;67019;51.034;3.728;2024-03-29T09:16:38;10.00;99.90
77829;DHT22;67019;51.034;3.728;2024-03-29T09:19:06;9.90;99.90
77829;DHT22;67019;51.034;3.728;2024-03-29T09:21:33;10.10;99.90
77829;DHT22;67019;51.034;3.728;2024-03-29T09:24:00;10.30;99.90
77829;DHT22;67019;51.034;3.728;2024-03-29T09:26:27;10.40;99.90
77829;DHT22;67019;51.034;3.728;2024-03-29T09:28:53;10.50;99.90
77829;DHT22;67019;51.034;3.728;2024-03-29T09:31:20;10.80;99.90
77829;DHT22;67019;51.034;3.728;2024-03-29T09:33:47;11.10;99.90
77829;DHT22;67019;51.034;3.728;2024-03-29T09:36:16;10.90;99.90
77829;DHT22;67019;51.034;3.728;2024-03-29T09:38:42;10.90;99.90
77829;DHT22;67019;51.034;3.728;2024-03-29T09:41:10;11.00;99.90
77829;DHT22;67019;51.034;3.728;2024-03-29T09:43:38;11.00;99.90
77829;DHT22;67019;51.034;3.728;2024-03-29T09:46:06;10.90;99.90
77829;DHT22;67019;51.034;3.728;2024-03-29T09:48:34;10.80;99.90
77829;DHT22;67019;51.034;3.728;2024-03-29T09:51:07;11.00;99.90
77829;DHT22;67019;51.034;3.728;2024-03-29T09:53:34;11.20;99.90
77829;DHT22;67019;51.034;3.728;2024-03-29T09:56:03;11.50;99.90
77829;DHT22;67019;51.034;3.728;2024-03-29T09:58:34;11.60;99.90
77829;DHT22;67019;51.034;3.728;2024-03-29T10:01:03;11.40;99.90
77829;DHT22;67019;51.034;3.728;2024-03-29T10:03:30;11.60;99.90
77829;DHT22;67019;51.034;3.728;2024-03-29T10:05:58;11.50;99.90
77829;DHT22;67019;51.034;3.728;2024-03-29T10:08:28;11.60;99.90
77829;DHT22;67019;51.034;3.728;2024-03-29T10:10:56;11.70;99.90
77829;DHT22;67019;51.034;3.728;2024-03-29T10:13:23;12.20;99.90
77829;DHT22;67019;51.034;3.728;2024-03-29T10:15:54;12.50;99.90
77829;DHT22;67019;51.034;3.728;2024-03-29T10:18:24;12.20;99.90
77829;DHT22;67019;51.034;3.728;2024-03-29T10:21:01;11.70;99.90
77829;DHT22;67019;51.034;3.728;2024-03-29T10:23:29;11.80;99.90
77829;DHT22;67019;51.034;3.728;2024-03-29T10:25:56;12.10;99.90
77829;DHT22;67019;51.034;3.728;2024-03-29T10:28:23;12.00;99.90
77829;DHT22;67019;51.034;3.728;2024-03-29T10:30:50;12.10;99.90
77829;DHT22;67019;51.034;3.728;2024-03-29T10:33:16;12.20;99.90
77829;DHT22;67019;51.034;3.728;2024-03-29T10:35:44;12.30;99.90
77829;DHT22;67019;51.034;3.728;2024-03-29T10:38:11;12.30;99.90
77829;DHT22;67019;51.034;3.728;2024-03-29T10:40:38;12.00;99.90
77829;DHT22;67019;51.034;3.728;2024-03-29T10:43:08;12.10;99.90
77829;DHT22;67019;51.034;3.728;2024-03-29T10:45:38;12.20;99.90
77829;DHT22;67019;51.034;3.728;2024-03-29T10:48:06;12.50;99.90
77829;DHT22;67019;51.034;3.728;2024-03-29T10:53:23;12.60;99.90
77829;DHT22;67019;51.034;3.728;2024-03-29T10:55:57;12.70;99.90
77829;DHT22;67019;51.034;3.728;2024-03-29T10:58:21;12.20;99.90
77829;DHT22;67019;51.034;3.728;2024-03-29T11:00:52;12.40;99.90
77829;DHT22;67019;51.034;3.728;2024-03-29T11:05:55;12.80;99.90
77829;DHT22;67019;51.034;3.728;2024-03-29T11:08:23;13.10;99.90
77829;DHT22;67019;51.034;3.728;2024-03-29T11:10:53;13.10;99.90
77829;DHT22;67019;51.034;3.728;2024-03-29T11:15:49;13.20;99.90
77829;DHT22;67019;51.034;3.728;2024-03-29T11:18:17;13.20;99.90
77829;DHT22;67019;51.034;3.728;2024-03-29T11:20:45;13.00;99.90
77829;DHT22;67019;51.034;3.728;2024-03-29T11:23:16;12.90;99.90
77829;DHT22;67019;51.034;3.728;2024-03-29T11:25:45;12.80;99.90
77829;DHT22;67019;51.034;3.728;2024-03-29T11:28:13;13.00;99.90
77829;DHT22;67019;51.034;3.728;2024-03-29T11:30:40;13.10;99.90
77829;DHT22;67019;51.034;3.728;2024-03-29T11:33:08;13.60;99.90
77829;DHT22;67019;51.034;3.728;2024-03-29T11:35:39;13.90;99.90
77829;DHT22;67019;51.034;3.728;2024-03-29T11:38:03;13.60;99.90
77829;DHT22;67019;51.034;3.728;2024-03-29T11:40:30;13.60;99.90
77829;DHT22;67019;51.034;3.728;2024-03-29T11:42:57;13.80;99.90
77829;DHT22;67019;51.034;3.728;2024-03-29T11:45:24;13.40;99.90
77829;DHT22;67019;51.034;3.728;2024-03-29T11:47:56;11.80;99.90
77829;DHT22;67019;51.034;3.728;2024-03-29T11:50:24;13.90;99.90
77829;DHT22;67019;51.034;3.728;2024-03-29T11:52:52;13.60;99.90
77829;DHT22;67019;51.034;3.728;2024-03-29T11:55:19;13.70;99.90
77829;DHT22;67019;51.034;3.728;2024-03-29T11:57:47;14.20;99.90
77829;DHT22;67019;51.034;3.728;2024-03-29T12:00:14;14.30;99.90
77829;DHT22;67019;51.034;3.728;2024-03-29T12:02:42;14.10;99.90
77829;DHT22;67019;51.034;3.728;2024-03-29T12:05:09;14.30;99.90
77829;DHT22;67019;51.034;3.728;2024-03-29T12:07:36;14.00;99.90
77829;DHT22;67019;51.034;3.728;2024-03-29T12:10:03;14.30;99.90
77829;DHT22;67019;51.034;3.728;2024-03-29T12:12:30;14.30;99.90
77829;DHT22;67019;51.034;3.728;2024-03-29T12:14:58;14.40;99.90
77829;DHT22;67019;51.034;3.728;2024-03-29T12:17:25;14.50;99.90
77829;DHT22;67019;51.034;3.728;2024-03-29T12:19:57;14.40;99.90
77829;DHT22;67019;51.034;3.728;2024-03-29T12:22:22;14.20;99.90
77829;DHT22;67019;51.034;3.728;2024-03-29T12:24:49;14.40;99.90
77829;DHT22;67019;51.034;3.728;2024-03-29T12:27:16;14.40;99.90
77829;DHT22;67019;51.034;3.728;2024-03-29T12:29:46;14.20;99.90
77829;DHT22;67019;51.034;3.728;2024-03-29T12:32:13;14.30;99.90
77829;DHT22;67019;51.034;3.728;2024-03-29T12:34:40;14.60;99.90
77829;DHT22;67019;51.034;3.728;2024-03-29T12:37:08;14.90;99.90
77829;DHT22;67019;51.034;3.728;2024-03-29T12:39:34;14.70;99.90
77829;DHT22;67019;51.034;3.728;2024-03-29T12:42:05;14.50;99.90
77829;DHT22;67019;51.034;3.728;2024-03-29T12:44:31;13.90;99.90
77829;DHT22;67019;51.034;3.728;2024-03-29T12:47:00;13.90;99.90
77829;DHT22;67019;51.034;3.728;2024-03-29T12:49:27;14.10;99.90
77829;DHT22;67019;51.034;3.728;2024-03-29T12:51:55;14.20;99.90
77829;DHT22;67019;51.034;3.728;2024-03-29T12:54:22;14.40;99.90
77829;DHT22;67019;51.034;3.728;2024-03-29T12:56:49;14.80;99.90
77829;DHT22;67019;51.034;3.728;2024-03-29T12:59:17;15.00;99.90
77829;DHT22;67019;51.034;3.728;2024-03-29T13:01:44;15.00;99.90
77829;DHT22;67019;51.034;3.728;2024-03-29T13:04:11;15.10;99.90
77829;DHT22;67019;51.034;3.728;2024-03-29T13:06:40;14.90;99.90
77829;DHT22;67019;51.034;3.728;2024-03-29T13:09:06;14.90;99.90
77829;DHT22;67019;51.034;3.728;2024-03-29T13:11:33;15.10;99.90
77829;DHT22;67019;51.034;3.728;2024-03-29T13:14:00;14.60;99.90
77829;DHT22;67019;51.034;3.728;2024-03-29T13:16:27;15.10;99.90
77829;DHT22;67019;51.034;3.728;2024-03-29T13:18:54;15.10;99.90
77829;DHT22;67019;51.034;3.728;2024-03-29T13:21:21;15.30;99.90
77829;DHT22;67019;51.034;3.728;2024-03-29T13:23:47;15.40;99.90
77829;DHT22;67019;51.034;3.728;2024-03-29T13:26:16;15.20;99.90
77829;DHT22;67019;51.034;3.728;2024-03-29T13:28:43;14.60;99.90
77829;DHT22;67019;51.034;3.728;2024-03-29T13:31:11;14.90;99.90
77829;DHT22;67019;51.034;3.728;2024-03-29T13:33:38;15.00;99.90
77829;DHT22;67019;51.034;3.728;2024-03-29T13:38:51;14.50;99.90
77829;DHT22;67019;51.034;3.728;2024-03-29T13:41:18;14.60;99.90
77829;DHT22;67019;51.034;3.728;2024-03-29T13:43:46;14.80;99.90
77829;DHT22;67019;51.034;3.728;2024-03-29T13:46:13;15.00;99.90
77829;DHT22;67019;51.034;3.728;2024-03-29T13:48:40;14.90;99.90
77829;DHT22;67019;51.034;3.728;2024-03-29T13:51:07;14.70;99.90
77829;DHT22;67019;51.034;3.728;2024-03-29T13:53:35;14.60;99.90
77829;DHT22;67019;51.034;3.728;2024-03-29T13:56:02;14.60;99.90
77829;DHT22;67019;51.034;3.728;2024-03-29T13:58:29;14.80;99.90
77829;DHT22;67019;51.034;3.728;2024-03-29T14:00:56;14.50;99.90
77829;DHT22;67019;51.034;3.728;2024-03-29T14:03:25;14.40;99.90
77829;DHT22;67019;51.034;3.728;2024-03-29T14:05:52;14.20;99.90
77829;DHT22;67019;51.034;3.728;2024-03-29T14:08:19;14.20;99.90
77829;DHT22;67019;51.034;3.728;2024-03-29T14:10:46;14.40;99.90
77829;DHT22;67019;51.034;3.728;2024-03-29T14:13:14;14.50;99.90
77829;DHT22;67019;51.034;3.728;2024-03-29T14:15:41;14.50;99.90
77829;DHT22;67019;51.034;3.728;2024-03-29T14:18:08;14.30;99.90
77829;DHT22;67019;51.034;3.728;2024-03-29T14:20:35;14.60;99.90
77829;DHT22;67019;51.034;3.728;2024-03-29T14:23:02;14.70;99.90
77829;DHT22;67019;51.034;3.728;2024-03-29T14:25:33;14.50;99.90
77829;DHT22;67019;51.034;3.728;2024-03-29T14:28:01;14.50;99.90
77829;DHT22;67019;51.034;3.728;2024-03-29T14:30:28;14.90;99.90
77829;DHT22;67019;51.034;3.728;2024-03-29T14:32:56;14.90;99.90
77829;DHT22;67019;51.034;3.728;2024-03-29T14:35:23;14.80;99.90
77829;DHT22;67019;51.034;3.728;2024-03-29T14:37:51;14.90;99.90
77829;DHT22;67019;51.034;3.728;2024-03-29T14:40:18;14.90;99.90
77829;DHT22;67019;51.034;3.728;2024-03-29T14:42:45;14.80;99.90
77829;DHT22;67019;51.034;3.728;2024-03-29T14:45:12;14.90;99.90
77829;DHT22;67019;51.034;3.728;2024-03-29T14:47:39;14.70;99.90
77829;DHT22;67019;51.034;3.728;2024-03-29T14:50:06;15.00;99.90
77829;DHT22;67019;51.034;3.728;2024-03-29T14:52:35;15.00;99.90
77829;DHT22;67019;51.034;3.728;2024-03-29T14:55:02;15.10;99.90
77829;DHT22;67019;51.034;3.728;2024-03-29T14:57:28;14.60;99.90
77829;DHT22;67019;51.034;3.728;2024-03-29T14:59:56;14.60;99.90
77829;DHT22;67019;51.034;3.728;2024-03-29T15:02:22;14.70;99.90
77829;DHT22;67019;51.034;3.728;2024-03-29T15:04:49;14.90;99.90
77829;DHT22;67019;51.034;3.728;2024-03-29T15:07:18;15.00;99.90
77829;DHT22;67019;51.034;3.728;2024-03-29T15:09:45;15.30;99.90
77829;DHT22;67019;51.034;3.728;2024-03-29T15:12:12;14.70;99.90
77829;DHT22;67019;51.034;3.728;2024-03-29T15:14:38;14.80;99.90
77829;DHT22;67019;51.034;3.728;2024-03-29T15:17:05;15.10;99.90
77829;DHT22;67019;51.034;3.728;2024-03-29T15:19:32;14.90;99.90
77829;DHT22;67019;51.034;3.728;2024-03-29T15:21:59;15.00;99.90
77829;DHT22;67019;51.034;3.728;2024-03-29T15:24:26;15.00;99.90
77829;DHT22;67019;51.034;3.728;2024-03-29T15:26:53;14.90;99.90
77829;DHT22;67019;51.034;3.728;2024-03-29T15:29:22;14.80;99.90
77829;DHT22;67019;51.034;3.728;2024-03-29T15:31:49;15.10;99.90
77829;DHT22;67019;51.034;3.728;2024-03-29T15:34:15;15.00;99.90
77829;DHT22;67019;51.034;3.728;2024-03-29T15:36:42;14.90;99.90
77829;DHT22;67019;51.034;3.728;2024-03-29T15:39:09;14.80;99.90
77829;DHT22;67019;51.034;3.728;2024-03-29T15:41:38;15.00;99.90
77829;DHT22;67019;51.034;3.728;2024-03-29T15:44:11;15.00;99.90
77829;DHT22;67019;51.034;3.728;2024-03-29T15:46:38;14.60;99.90
77829;DHT22;67019;51.034;3.728;2024-03-29T15:49:06;16.60;99.90